createdAt,value
2023-03-26T00:01:39.287Z,7.33
2023-03-26T00:04:07.851Z,7.31
2023-03-26T00:06:39.852Z,7.28
2023-03-26T00:09:13.585Z,7.27
2023-03-26T00:11:43.042Z,7.25
2023-03-26T00:14:14.190Z,7.23
2023-03-26T00:16:42.891Z,7.21
2023-03-26T00:19:12.808Z,7.19
2023-03-26T00:21:41.573Z,7.11
2023-03-26T00:24:15.520Z,7.16
2023-03-26T00:26:45.048Z,7.15
2023-03-26T00:29:15.684Z,7.13
2023-03-26T00:31:46.556Z,7.11
2023-03-26T00:34:18.645Z,7.11
2023-03-26T00:36:47.508Z,7.10
2023-03-26T00:39:17.813Z,7.09
2023-03-26T00:41:45.852Z,7.09
2023-03-26T00:44:14.040Z,7.08
2023-03-26T00:46:42.849Z,7.08
2023-03-26T00:49:14.981Z,7.10
2023-03-26T00:51:43.214Z,7.11
2023-03-26T00:54:12.043Z,7.12
2023-03-26T00:56:40.142Z,7.12
2023-03-26T00:59:09.379Z,7.06
2023-03-26T01:01:37.880Z,7.13
2023-03-26T01:04:31.810Z,7.14
2023-03-26T01:07:22.130Z,7.14
2023-03-26T01:09:51.751Z,7.14
2023-03-26T01:12:24.098Z,7.15
2023-03-26T01:14:55.292Z,7.16
2023-03-26T01:17:24.405Z,7.10
2023-03-26T01:20:15.980Z,7.18
2023-03-26T01:22:51.213Z,7.18
2023-03-26T01:25:23.294Z,7.19
2023-03-26T01:27:55.818Z,7.20
2023-03-26T01:30:42.676Z,7.21
2023-03-26T01:33:34.077Z,7.22
2023-03-26T01:36:17.553Z,7.22
2023-03-26T01:39:39.022Z,7.16
2023-03-26T01:42:14.035Z,7.24
2023-03-26T01:44:50.487Z,7.17
2023-03-26T01:47:19.305Z,7.26
2023-03-26T01:49:48.646Z,7.25
2023-03-26T01:52:21.414Z,7.25
2023-03-26T01:54:50.351Z,7.26
2023-03-26T01:57:39.065Z,7.15
2023-03-26T02:00:30.230Z,7.24
2023-03-26T02:03:32.526Z,7.24
2023-03-26T02:06:15.995Z,7.24
2023-03-26T02:08:52.463Z,7.25
2023-03-26T02:11:21.604Z,7.24
2023-03-26T02:13:51.450Z,7.24
2023-03-26T02:16:20.986Z,7.24
2023-03-26T02:18:55.743Z,7.23
2023-03-26T02:21:26.388Z,7.22
2023-03-26T02:24:03.146Z,7.21
2023-03-26T02:26:35.888Z,7.21
2023-03-26T02:29:10.018Z,7.20
2023-03-26T02:31:39.451Z,7.19
2023-03-26T02:34:07.762Z,7.20
2023-03-26T02:36:37.480Z,7.21
2023-03-26T02:39:06.134Z,7.22
2023-03-26T02:41:38.191Z,7.24
2023-03-26T02:44:09.888Z,7.26
2023-03-26T02:46:56.294Z,7.27
2023-03-26T02:49:44.191Z,7.28
2023-03-26T02:52:17.254Z,7.29
2023-03-26T02:54:45.855Z,7.29
2023-03-26T02:57:26.000Z,7.31
2023-03-26T03:00:15.454Z,7.32
2023-03-26T03:02:48.296Z,7.33
2023-03-26T03:05:46.418Z,7.35
2023-03-26T03:08:38.665Z,7.36
2023-03-26T03:11:11.910Z,7.33
2023-03-26T03:13:49.458Z,7.40
2023-03-26T03:16:20.928Z,7.41
2023-03-26T03:18:57.866Z,7.42
2023-03-26T03:21:29.569Z,7.42
2023-03-26T03:24:00.110Z,7.42
2023-03-26T03:26:30.767Z,7.41
2023-03-26T03:29:02.485Z,7.41
2023-03-26T03:31:30.512Z,7.40
2023-03-26T03:34:02.438Z,7.38
2023-03-26T03:36:33.463Z,7.36
2023-03-26T03:39:08.855Z,7.34
2023-03-26T03:41:37.369Z,7.32
2023-03-26T03:44:06.924Z,7.32
2023-03-26T03:46:35.220Z,7.31
2023-03-26T03:49:04.003Z,7.29
2023-03-26T03:51:36.316Z,7.27
2023-03-26T03:54:08.592Z,7.26
2023-03-26T03:56:57.387Z,7.24
2023-03-26T03:59:47.656Z,7.22
2023-03-26T04:02:35.265Z,7.22
2023-03-26T04:05:06.202Z,7.19
2023-03-26T04:07:36.044Z,7.19
2023-03-26T04:10:08.453Z,7.18
2023-03-26T04:12:55.978Z,7.19
2023-03-26T04:15:37.125Z,7.19
2023-03-26T04:18:10.544Z,7.20
2023-03-26T04:20:46.380Z,7.21
2023-03-26T04:23:19.049Z,7.21
2023-03-26T04:25:54.178Z,7.22
2023-03-26T04:28:42.501Z,7.23
2023-03-26T04:31:31.292Z,7.25
2023-03-26T04:34:14.067Z,7.25
2023-03-26T04:36:54.724Z,7.26
2023-03-26T04:39:29.477Z,7.27
2023-03-26T04:42:30.333Z,7.29
2023-03-26T04:45:08.134Z,7.30
2023-03-26T04:47:37.283Z,7.31
2023-03-26T04:50:08.311Z,7.33
2023-03-26T04:52:38.191Z,7.34
2023-03-26T04:55:56.225Z,7.27
2023-03-26T04:58:43.441Z,7.37
2023-03-26T05:01:11.816Z,7.38
2023-03-26T05:03:46.009Z,7.39
2023-03-26T05:06:17.869Z,7.41
2023-03-26T05:08:46.517Z,7.42
2023-03-26T05:11:20.952Z,7.42
2023-03-26T05:13:49.503Z,7.43
2023-03-26T05:16:17.753Z,7.43
2023-03-26T05:18:54.217Z,7.44
2023-03-26T05:21:22.627Z,7.45
2023-03-26T05:23:51.097Z,7.46
2023-03-26T05:26:20.571Z,7.47
2023-03-26T05:28:48.618Z,7.48
2023-03-26T05:31:31.187Z,7.50
2023-03-26T05:34:03.361Z,7.51
2023-03-26T05:36:31.516Z,7.52
2023-03-26T05:39:11.390Z,7.55
2023-03-26T05:41:59.615Z,7.57
2023-03-26T05:44:35.465Z,7.59
2023-03-26T05:47:05.702Z,7.62
2023-03-26T05:49:34.503Z,7.65
2023-03-26T05:52:02.704Z,7.67
2023-03-26T05:54:49.468Z,7.71
2023-03-26T05:57:40.502Z,7.73
2023-03-26T06:00:48.860Z,7.75
2023-03-26T06:03:18.673Z,7.76
2023-03-26T06:06:06.363Z,7.73
2023-03-26T06:09:00.947Z,7.69
2023-03-26T06:11:30.830Z,7.63
2023-03-26T06:13:59.953Z,7.56
2023-03-26T06:16:28.492Z,7.55
2023-03-26T06:19:06.839Z,7.53
2023-03-26T06:21:50.529Z,7.51
2023-03-26T06:24:33.624Z,7.48
2023-03-26T06:27:27.977Z,7.47
2023-03-26T06:30:15.484Z,7.45
2023-03-26T06:33:00.745Z,7.45
2023-03-26T06:35:33.910Z,7.44
2023-03-26T06:38:02.192Z,7.44
2023-03-26T06:40:31.120Z,7.43
2023-03-26T06:43:18.404Z,7.42
2023-03-26T06:46:05.620Z,7.43
2023-03-26T06:49:06.228Z,7.45
2023-03-26T06:51:53.631Z,7.49
2023-03-26T06:54:50.709Z,7.54
2023-03-26T06:57:49.139Z,7.59
2023-03-26T07:00:43.524Z,7.65
2023-03-26T07:03:30.835Z,7.72
2023-03-26T07:06:18.628Z,7.79
2023-03-26T07:09:05.507Z,7.87
2023-03-26T07:12:00.019Z,7.94
2023-03-26T07:14:46.603Z,7.97
2023-03-26T07:17:24.073Z,8.06
2023-03-26T07:20:12.263Z,8.10
2023-03-26T07:22:41.295Z,8.14
2023-03-26T07:25:34.995Z,8.19
2023-03-26T07:28:31.607Z,8.25
2023-03-26T07:31:40.085Z,8.31
2023-03-26T07:34:33.576Z,8.34
2023-03-26T07:38:04.543Z,8.34
2023-03-26T07:41:07.475Z,8.43
2023-03-26T07:44:23.236Z,8.47
2023-03-26T07:47:33.101Z,8.51
2023-03-26T07:50:23.086Z,8.55
2023-03-26T07:53:00.309Z,8.58
2023-03-26T07:56:16.337Z,8.59
2023-03-26T07:59:51.525Z,8.61
2023-03-26T08:03:27.243Z,8.64
2023-03-26T08:06:10.020Z,8.67
2023-03-26T08:09:13.178Z,8.69
2023-03-26T08:12:12.812Z,8.72
2023-03-26T08:14:46.620Z,8.75
2023-03-26T08:17:17.372Z,8.79
2023-03-26T08:19:59.445Z,8.82
2023-03-26T08:22:34.464Z,8.85
2023-03-26T08:25:25.595Z,8.90
2023-03-26T08:28:14.637Z,8.98
2023-03-26T08:30:43.593Z,9.06
2023-03-26T08:33:18.513Z,9.12
2023-03-26T08:35:47.842Z,9.18
2023-03-26T08:38:19.444Z,9.24
2023-03-26T08:41:25.228Z,9.26
2023-03-26T08:44:08.613Z,9.27
2023-03-26T08:47:09.302Z,9.30
2023-03-26T08:50:02.719Z,9.31
2023-03-26T08:53:07.949Z,9.33
2023-03-26T08:55:48.503Z,9.34
2023-03-26T08:58:38.794Z,9.32
2023-03-26T09:01:12.371Z,9.30
2023-03-26T09:04:05.721Z,9.28
2023-03-26T09:07:13.984Z,9.28
2023-03-26T09:09:44.757Z,9.25
2023-03-26T09:12:37.677Z,9.38
2023-03-26T09:15:21.252Z,9.44
2023-03-26T09:18:17.368Z,9.48
2023-03-26T09:20:54.649Z,9.53
2023-03-26T09:24:06.237Z,9.58
2023-03-26T09:26:37.165Z,9.64
2023-03-26T09:29:14.608Z,9.69
2023-03-26T09:31:58.193Z,9.70
2023-03-26T09:34:54.111Z,9.73
2023-03-26T09:37:56.993Z,9.76
2023-03-26T09:40:37.182Z,9.79
2023-03-26T09:43:31.175Z,9.80
2023-03-26T09:46:22.005Z,9.83
2023-03-26T09:49:08.560Z,9.85
2023-03-26T09:52:15.048Z,9.87
2023-03-26T09:54:57.972Z,9.89
2023-03-26T09:58:05.361Z,9.90
2023-03-26T10:01:01.049Z,9.90
2023-03-26T10:04:01.985Z,9.90
2023-03-26T10:06:42.708Z,9.92
2023-03-26T10:09:33.940Z,9.95
2023-03-26T10:12:16.983Z,9.97
2023-03-26T10:15:00.316Z,9.96
2023-03-26T10:18:27.120Z,9.98
2023-03-26T10:21:17.315Z,10.01
2023-03-26T10:23:57.214Z,10.06
2023-03-26T10:26:42.028Z,10.09
2023-03-26T10:29:44.221Z,10.01
2023-03-26T10:32:47.333Z,9.79
2023-03-26T10:35:52.697Z,9.53
2023-03-26T10:38:43.731Z,9.36
2023-03-26T10:41:22.359Z,9.30
2023-03-26T10:44:07.308Z,9.34
2023-03-26T10:46:42.343Z,9.40
2023-03-26T10:49:41.708Z,9.45
2023-03-26T10:52:16.208Z,9.47
2023-03-26T10:54:58.198Z,9.52
2023-03-26T10:57:32.209Z,9.59
2023-03-26T11:00:26.622Z,9.66
2023-03-26T11:03:19.819Z,9.73
2023-03-26T11:06:16.101Z,9.75
2023-03-26T11:08:55.890Z,9.80
2023-03-26T11:11:45.319Z,9.83
2023-03-26T11:14:35.173Z,9.87
2023-03-26T11:17:40.566Z,9.92
2023-03-26T11:20:23.367Z,9.99
2023-03-26T11:23:07.838Z,10.04
2023-03-26T11:25:52.882Z,10.08
2023-03-26T11:28:21.335Z,10.13
2023-03-26T11:31:01.558Z,10.16
2023-03-26T11:33:36.649Z,10.20
2023-03-26T11:36:12.051Z,10.24
2023-03-26T11:38:49.676Z,10.26
2023-03-26T11:41:25.028Z,10.29
2023-03-26T11:44:21.863Z,10.31
2023-03-26T11:46:58.922Z,10.34
2023-03-26T11:49:29.735Z,10.41
2023-03-26T11:51:59.420Z,10.52
2023-03-26T11:54:28.023Z,10.67
2023-03-26T11:57:13.229Z,10.81
2023-03-26T11:59:55.483Z,10.85
2023-03-26T12:02:35.079Z,10.83
2023-03-26T12:05:18.383Z,10.81
2023-03-26T12:07:56.965Z,10.79
2023-03-26T12:10:29.845Z,10.77
2023-03-26T12:13:01.950Z,10.77
2023-03-26T12:15:32.305Z,10.75
2023-03-26T12:18:21.024Z,10.73
2023-03-26T12:20:49.556Z,10.69
2023-03-26T12:24:00.342Z,10.63
2023-03-26T12:26:42.973Z,10.55
2023-03-26T12:29:14.161Z,10.45
2023-03-26T12:31:55.687Z,10.39
2023-03-26T12:34:31.851Z,10.40
2023-03-26T12:37:01.018Z,10.42
2023-03-26T12:40:08.827Z,10.44
2023-03-26T12:44:47.002Z,10.43
2023-03-26T12:45:28.127Z,10.41
2023-03-26T12:48:03.807Z,10.37
2023-03-26T12:50:57.672Z,10.31
2023-03-26T12:53:47.298Z,10.19
2023-03-26T12:56:36.599Z,10.06
2023-03-26T12:59:18.591Z,9.95
2023-03-26T13:02:08.312Z,9.93
2023-03-26T13:05:02.155Z,10.03
2023-03-26T13:08:00.484Z,10.20
2023-03-26T13:10:54.681Z,10.40
2023-03-26T13:13:41.578Z,10.62
2023-03-26T13:16:14.112Z,10.81
2023-03-26T13:19:06.289Z,11.00
2023-03-26T13:22:03.315Z,11.20
2023-03-26T13:25:07.727Z,11.40
2023-03-26T13:28:00.574Z,11.50
2023-03-26T13:30:43.780Z,11.56
2023-03-26T13:33:27.078Z,11.55
2023-03-26T13:36:10.229Z,11.48
2023-03-26T13:38:59.139Z,11.32
2023-03-26T13:41:28.978Z,11.13
2023-03-26T13:44:05.459Z,10.96
2023-03-26T13:46:54.931Z,10.80
2023-03-26T13:49:43.615Z,10.76
2023-03-26T13:52:39.826Z,10.85
2023-03-26T13:55:29.513Z,11.00
2023-03-26T13:58:14.245Z,11.15
2023-03-26T14:00:54.739Z,11.23
2023-03-26T14:03:31.943Z,11.30
2023-03-26T14:06:06.650Z,11.35
2023-03-26T14:08:47.608Z,11.40
2023-03-26T14:11:50.560Z,11.50
2023-03-26T14:15:03.494Z,11.61
2023-03-26T14:17:46.583Z,11.70
2023-03-26T14:20:18.016Z,11.75
2023-03-26T14:23:31.864Z,11.77
2023-03-26T14:26:29.607Z,11.84
2023-03-26T14:29:10.316Z,11.91
2023-03-26T14:32:07.150Z,11.95
2023-03-26T14:34:55.910Z,12.00
2023-03-26T14:37:42.482Z,12.06
2023-03-26T14:40:15.470Z,12.09
2023-03-26T14:43:15.762Z,12.06
2023-03-26T14:46:02.399Z,12.03
2023-03-26T14:48:36.904Z,12.00
2023-03-26T14:51:14.610Z,12.04
2023-03-26T14:53:47.699Z,12.13
2023-03-26T14:56:24.879Z,12.19
2023-03-26T14:59:11.965Z,12.27
2023-03-26T15:02:08.226Z,12.33
2023-03-26T15:04:54.657Z,12.38
2023-03-26T15:07:37.310Z,12.42
2023-03-26T15:10:22.941Z,12.47
2023-03-26T15:13:22.513Z,12.53
2023-03-26T15:16:03.660Z,12.50
2023-03-26T15:18:59.433Z,12.41
2023-03-26T15:21:55.755Z,12.31
2023-03-26T15:24:38.732Z,12.18
2023-03-26T15:27:28.582Z,12.09
2023-03-26T15:30:11.724Z,12.02
2023-03-26T15:33:18.225Z,11.96
2023-03-26T15:36:29.575Z,11.92
2023-03-26T15:39:58.686Z,11.92
2023-03-26T15:42:47.005Z,11.87
2023-03-26T15:45:45.139Z,11.84
2023-03-26T15:48:43.269Z,11.83
2023-03-26T15:51:47.320Z,11.81
2023-03-26T15:54:23.768Z,11.74
2023-03-26T15:57:20.295Z,11.68
2023-03-26T16:00:18.784Z,11.58
2023-03-26T16:03:12.933Z,11.52
2023-03-26T16:06:03.774Z,11.45
2023-03-26T16:08:41.299Z,11.38
2023-03-26T16:11:12.786Z,11.31
2023-03-26T16:13:49.930Z,11.26
2023-03-26T16:16:25.448Z,11.19
2023-03-26T16:19:18.371Z,11.12
2023-03-26T16:22:00.568Z,11.04
2023-03-26T16:24:35.471Z,10.98
2023-03-26T16:27:15.755Z,10.91
2023-03-26T16:30:16.830Z,10.87
2023-03-26T16:32:56.382Z,10.80
2023-03-26T16:35:57.139Z,10.75
2023-03-26T16:38:27.327Z,10.70
2023-03-26T16:41:01.860Z,10.66
2023-03-26T16:43:40.470Z,10.63
2023-03-26T16:46:17.785Z,10.58
2023-03-26T16:48:48.786Z,10.55
2023-03-26T16:51:54.458Z,10.50
2023-03-26T16:54:41.077Z,10.43
2023-03-26T16:57:26.293Z,10.37
2023-03-26T17:00:29.282Z,10.31
2023-03-26T17:03:25.921Z,10.26
2023-03-26T17:05:57.129Z,10.21
2023-03-26T17:08:46.899Z,10.16
2023-03-26T17:11:23.957Z,10.10
2023-03-26T17:14:18.505Z,10.04
2023-03-26T17:16:52.497Z,9.97
2023-03-26T17:19:33.754Z,9.91
2023-03-26T17:22:33.799Z,9.86
2023-03-26T17:25:05.800Z,9.80
2023-03-26T17:28:21.404Z,9.73
2023-03-26T17:31:17.673Z,9.63
2023-03-26T17:33:46.265Z,9.51
2023-03-26T17:36:28.532Z,9.40
2023-03-26T17:39:19.718Z,9.28
2023-03-26T17:42:01.234Z,9.16
2023-03-26T17:44:54.087Z,9.06
2023-03-26T17:47:28.726Z,8.95
2023-03-26T17:50:22.872Z,8.85
2023-03-26T17:53:18.149Z,8.73
2023-03-26T17:55:49.547Z,8.64
2023-03-26T17:58:32.338Z,8.56
2023-03-26T18:01:30.051Z,8.46
2023-03-26T18:04:02.963Z,8.36
2023-03-26T18:06:31.091Z,8.02
2023-03-26T18:09:37.449Z,8.17
2023-03-26T18:12:36.068Z,8.08
2023-03-26T18:15:14.160Z,7.97
2023-03-26T18:17:46.318Z,7.89
2023-03-26T18:20:36.951Z,7.80
2023-03-26T18:23:21.110Z,7.71
2023-03-26T18:25:57.250Z,7.63
2023-03-26T18:28:35.801Z,7.57
2023-03-26T18:31:18.967Z,7.52
2023-03-26T18:33:48.871Z,7.48
2023-03-26T18:36:18.803Z,7.46
2023-03-26T18:38:49.079Z,7.43
2023-03-26T18:41:31.377Z,7.40
2023-03-26T18:44:05.219Z,7.37
2023-03-26T18:46:34.235Z,7.35
2023-03-26T18:49:03.140Z,7.29
2023-03-26T18:51:32.168Z,7.31
2023-03-26T18:54:03.667Z,7.30
2023-03-26T18:56:36.873Z,7.30
2023-03-26T18:59:07.675Z,7.28
2023-03-26T19:01:37.669Z,7.26
2023-03-26T19:04:08.044Z,7.21
2023-03-26T19:06:41.984Z,7.17
2023-03-26T19:09:28.090Z,7.13
2023-03-26T19:12:18.955Z,7.08
2023-03-26T19:14:57.673Z,7.02
2023-03-26T19:17:30.340Z,6.95
2023-03-26T19:19:58.855Z,6.89
2023-03-26T19:22:29.198Z,6.84
2023-03-26T19:25:01.697Z,6.80
2023-03-26T19:27:32.251Z,6.75
2023-03-26T19:30:00.355Z,6.70
2023-03-26T19:32:34.778Z,6.64
2023-03-26T19:35:04.712Z,6.62
2023-03-26T19:37:33.240Z,6.60
2023-03-26T19:40:14.433Z,6.55
2023-03-26T19:42:44.740Z,6.49
2023-03-26T19:45:17.884Z,6.44
2023-03-26T19:47:54.718Z,6.40
2023-03-26T19:50:35.602Z,6.36
2023-03-26T19:53:15.441Z,6.33
2023-03-26T19:56:21.768Z,6.29
2023-03-26T19:58:50.408Z,6.23
2023-03-26T20:01:27.541Z,6.19
2023-03-26T20:03:59.947Z,6.14
2023-03-26T20:09:21.462Z,6.05
2023-03-26T20:11:50.517Z,6.02
2023-03-26T20:14:25.803Z,5.99
2023-03-26T20:16:54.491Z,5.93
2023-03-26T20:19:23.051Z,5.89
2023-03-26T20:21:52.776Z,5.85
2023-03-26T20:24:21.879Z,5.80
2023-03-26T20:26:50.067Z,5.75
2023-03-26T20:29:19.241Z,5.65
2023-03-26T20:31:48.918Z,5.68
2023-03-26T20:34:22.705Z,5.63
2023-03-26T20:37:01.187Z,5.59
2023-03-26T20:39:29.605Z,5.55
2023-03-26T20:41:57.867Z,5.50
2023-03-26T20:44:27.663Z,5.44
2023-03-26T20:46:57.344Z,5.39
2023-03-26T20:49:25.818Z,5.36
2023-03-26T20:51:54.383Z,5.32
2023-03-26T20:54:24.574Z,5.28
2023-03-26T20:56:54.454Z,5.26
2023-03-26T20:59:26.879Z,5.26
2023-03-26T21:01:57.836Z,5.27
2023-03-26T21:04:27.539Z,5.29
2023-03-26T21:07:06.686Z,5.32
2023-03-26T21:09:40.052Z,5.35
2023-03-26T21:12:33.596Z,5.38
2023-03-26T21:15:07.181Z,5.43
2023-03-26T21:17:39.825Z,5.48
2023-03-26T21:20:13.704Z,5.52
2023-03-26T21:22:54.363Z,5.57
2023-03-26T21:25:28.885Z,5.61
2023-03-26T21:28:08.843Z,5.66
2023-03-26T21:30:37.732Z,5.70
2023-03-26T21:33:06.439Z,5.73
2023-03-26T21:35:35.053Z,5.76
2023-03-26T21:38:04.930Z,5.70
2023-03-26T21:40:33.300Z,5.79
2023-03-26T21:43:01.973Z,5.79
2023-03-26T21:45:30.518Z,5.78
2023-03-26T21:47:58.807Z,5.76
2023-03-26T21:50:27.018Z,5.74
2023-03-26T21:52:56.907Z,5.71
2023-03-26T21:55:25.213Z,5.67
2023-03-26T21:58:27.585Z,5.63
2023-03-26T22:01:11.101Z,5.58
2023-03-26T22:04:24.109Z,5.49
2023-03-26T22:07:07.066Z,5.49
2023-03-26T22:09:36.419Z,5.45
2023-03-26T22:12:05.541Z,5.41
2023-03-26T22:14:34.510Z,5.37
2023-03-26T22:17:02.797Z,5.32
2023-03-26T22:19:31.044Z,5.27
2023-03-26T22:22:00.259Z,5.22
2023-03-26T22:24:28.710Z,5.18
2023-03-26T22:26:57.150Z,5.13
2023-03-26T22:29:25.265Z,5.08
2023-03-26T22:31:53.313Z,5.02
2023-03-26T22:34:23.191Z,4.96
2023-03-26T22:36:52.133Z,4.91
2023-03-26T22:39:20.222Z,4.87
2023-03-26T22:41:48.682Z,4.84
2023-03-26T22:44:20.287Z,4.80
2023-03-26T22:46:52.532Z,4.77
2023-03-26T22:49:21.415Z,4.73
2023-03-26T22:51:50.421Z,4.70
2023-03-26T22:54:18.473Z,4.67
2023-03-26T22:56:46.503Z,4.64
2023-03-26T22:59:14.541Z,4.59
2023-03-26T23:01:44.456Z,4.54
2023-03-26T23:04:13.006Z,4.54
2023-03-26T23:07:00.400Z,4.51
2023-03-26T23:09:29.569Z,4.48
2023-03-26T23:11:57.864Z,4.46
2023-03-26T23:14:26.398Z,4.44
2023-03-26T23:16:55.183Z,4.43
2023-03-26T23:19:23.081Z,4.42
2023-03-26T23:21:51.282Z,4.40
2023-03-26T23:24:19.841Z,4.38
2023-03-26T23:26:50.942Z,4.37
2023-03-26T23:29:19.379Z,4.33
2023-03-26T23:31:47.688Z,4.35
2023-03-26T23:34:17.163Z,4.34
2023-03-26T23:36:45.447Z,4.36
2023-03-26T23:39:13.875Z,4.36
2023-03-26T23:41:41.958Z,4.35
2023-03-26T23:44:13.999Z,4.35
2023-03-26T23:46:42.879Z,4.35
2023-03-26T23:49:12.172Z,4.35
2023-03-26T23:51:40.748Z,4.35
2023-03-26T23:54:08.911Z,4.36
2023-03-26T23:56:37.012Z,4.37
2023-03-26T23:59:05.126Z,4.38
